sensor_id;sensor_type;location;lat;lon;timestamp;P1;durP1;ratioP1;P2;durP2;ratioP2
70322;SDS011;57735;56.264;43.898;2023-08-06T00:00:38;45.45;;;20.40;;
70322;SDS011;57735;56.264;43.898;2023-08-06T00:03:09;45.47;;;22.35;;
70322;SDS011;57735;56.264;43.898;2023-08-06T00:05:42;42.92;;;20.65;;
70322;SDS011;57735;56.264;43.898;2023-08-06T00:08:13;44.97;;;20.60;;
70322;SDS011;57735;56.264;43.898;2023-08-06T00:10:44;39.40;;;20.65;;
70322;SDS011;57735;56.264;43.898;2023-08-06T00:13:17;40.63;;;19.77;;
70322;SDS011;57735;56.264;43.898;2023-08-06T00:15:48;42.78;;;19.98;;
70322;SDS011;57735;56.264;43.898;2023-08-06T00:18:19;38.72;;;21.98;;
70322;SDS011;57735;56.264;43.898;2023-08-06T00:20:49;42.65;;;24.63;;
70322;SDS011;57735;56.264;43.898;2023-08-06T00:23:22;42.67;;;23.73;;
70322;SDS011;57735;56.264;43.898;2023-08-06T00:25:53;50.47;;;23.50;;
70322;SDS011;57735;56.264;43.898;2023-08-06T00:28:24;46.70;;;26.02;;
70322;SDS011;57735;56.264;43.898;2023-08-06T00:30:55;47.85;;;26.27;;
70322;SDS011;57735;56.264;43.898;2023-08-06T00:33:26;52.38;;;26.10;;
70322;SDS011;57735;56.264;43.898;2023-08-06T00:36:00;52.60;;;27.52;;
70322;SDS011;57735;56.264;43.898;2023-08-06T00:38:30;49.83;;;27.52;;
70322;SDS011;57735;56.264;43.898;2023-08-06T00:41:01;50.10;;;27.50;;
70322;SDS011;57735;56.264;43.898;2023-08-06T00:43:32;54.22;;;28.70;;
70322;SDS011;57735;56.264;43.898;2023-08-06T00:46:03;51.40;;;27.23;;
70322;SDS011;57735;56.264;43.898;2023-08-06T00:48:34;54.78;;;28.73;;
70322;SDS011;57735;56.264;43.898;2023-08-06T00:51:08;53.03;;;28.23;;
70322;SDS011;57735;56.264;43.898;2023-08-06T00:53:43;48.53;;;26.30;;
70322;SDS011;57735;56.264;43.898;2023-08-06T00:56:14;44.28;;;26.55;;
70322;SDS011;57735;56.264;43.898;2023-08-06T00:58:45;48.25;;;25.55;;
70322;SDS011;57735;56.264;43.898;2023-08-06T01:01:16;53.85;;;27.20;;
70322;SDS011;57735;56.264;43.898;2023-08-06T01:03:47;52.45;;;27.90;;
70322;SDS011;57735;56.264;43.898;2023-08-06T01:06:19;46.05;;;24.80;;
70322;SDS011;57735;56.264;43.898;2023-08-06T01:09:01;40.35;;;23.65;;
70322;SDS011;57735;56.264;43.898;2023-08-06T01:14:48;45.00;;;22.75;;
70322;SDS011;57735;56.264;43.898;2023-08-06T01:17:36;43.47;;;23.63;;
70322;SDS011;57735;56.264;43.898;2023-08-06T01:20:07;42.88;;;22.13;;
70322;SDS011;57735;56.264;43.898;2023-08-06T01:22:38;36.45;;;21.20;;
70322;SDS011;57735;56.264;43.898;2023-08-06T01:25:08;45.92;;;22.70;;
70322;SDS011;57735;56.264;43.898;2023-08-06T01:27:44;42.60;;;20.00;;
70322;SDS011;57735;56.264;43.898;2023-08-06T01:30:20;38.60;;;20.90;;
70322;SDS011;57735;56.264;43.898;2023-08-06T01:33:07;44.53;;;20.63;;
70322;SDS011;57735;56.264;43.898;2023-08-06T01:35:43;41.80;;;21.73;;
70322;SDS011;57735;56.264;43.898;2023-08-06T01:38:18;50.85;;;20.65;;
70322;SDS011;57735;56.264;43.898;2023-08-06T01:40:49;38.92;;;20.58;;
70322;SDS011;57735;56.264;43.898;2023-08-06T01:43:20;38.53;;;20.65;;
70322;SDS011;57735;56.264;43.898;2023-08-06T01:45:50;41.78;;;19.65;;
70322;SDS011;57735;56.264;43.898;2023-08-06T01:48:21;39.88;;;20.83;;
70322;SDS011;57735;56.264;43.898;2023-08-06T01:50:52;44.80;;;23.65;;
70322;SDS011;57735;56.264;43.898;2023-08-06T01:53:23;44.55;;;21.73;;
70322;SDS011;57735;56.264;43.898;2023-08-06T01:55:56;48.17;;;22.42;;
70322;SDS011;57735;56.264;43.898;2023-08-06T01:58:27;40.83;;;21.95;;
70322;SDS011;57735;56.264;43.898;2023-08-06T02:00:58;44.67;;;22.85;;
70322;SDS011;57735;56.264;43.898;2023-08-06T02:03:31;49.05;;;24.73;;
70322;SDS011;57735;56.264;43.898;2023-08-06T02:06:02;50.45;;;24.52;;
70322;SDS011;57735;56.264;43.898;2023-08-06T02:08:33;49.25;;;23.45;;
70322;SDS011;57735;56.264;43.898;2023-08-06T02:11:03;43.03;;;22.63;;
70322;SDS011;57735;56.264;43.898;2023-08-06T02:13:34;50.78;;;23.60;;
70322;SDS011;57735;56.264;43.898;2023-08-06T02:16:07;47.58;;;23.08;;
70322;SDS011;57735;56.264;43.898;2023-08-06T02:18:41;43.75;;;24.33;;
70322;SDS011;57735;56.264;43.898;2023-08-06T02:21:31;46.17;;;24.90;;
70322;SDS011;57735;56.264;43.898;2023-08-06T02:24:02;45.28;;;23.25;;
70322;SDS011;57735;56.264;43.898;2023-08-06T02:26:33;49.72;;;22.20;;
70322;SDS011;57735;56.264;43.898;2023-08-06T02:29:04;52.28;;;23.85;;
70322;SDS011;57735;56.264;43.898;2023-08-06T02:31:35;53.72;;;23.88;;
70322;SDS011;57735;56.264;43.898;2023-08-06T02:34:06;44.55;;;23.45;;
70322;SDS011;57735;56.264;43.898;2023-08-06T02:36:37;44.45;;;22.50;;
70322;SDS011;57735;56.264;43.898;2023-08-06T02:39:10;54.65;;;24.65;;
70322;SDS011;57735;56.264;43.898;2023-08-06T02:41:41;49.05;;;24.25;;
70322;SDS011;57735;56.264;43.898;2023-08-06T02:44:11;44.08;;;22.98;;
70322;SDS011;57735;56.264;43.898;2023-08-06T02:46:44;47.67;;;22.90;;
70322;SDS011;57735;56.264;43.898;2023-08-06T02:49:15;46.53;;;23.45;;
70322;SDS011;57735;56.264;43.898;2023-08-06T02:51:45;50.35;;;23.00;;
70322;SDS011;57735;56.264;43.898;2023-08-06T02:54:16;44.60;;;22.15;;
70322;SDS011;57735;56.264;43.898;2023-08-06T02:56:47;43.40;;;22.02;;
70322;SDS011;57735;56.264;43.898;2023-08-06T02:59:18;50.28;;;24.02;;
70322;SDS011;57735;56.264;43.898;2023-08-06T03:01:49;51.63;;;24.38;;
70322;SDS011;57735;56.264;43.898;2023-08-06T03:04:20;53.05;;;21.38;;
70322;SDS011;57735;56.264;43.898;2023-08-06T03:06:51;53.70;;;24.13;;
70322;SDS011;57735;56.264;43.898;2023-08-06T03:09:21;50.05;;;21.85;;
70322;SDS011;57735;56.264;43.898;2023-08-06T03:11:55;45.90;;;23.70;;
70322;SDS011;57735;56.264;43.898;2023-08-06T03:14:25;42.15;;;22.02;;
70322;SDS011;57735;56.264;43.898;2023-08-06T03:16:58;49.92;;;24.15;;
70322;SDS011;57735;56.264;43.898;2023-08-06T03:19:29;45.75;;;22.83;;
70322;SDS011;57735;56.264;43.898;2023-08-06T03:22:00;42.80;;;21.83;;
70322;SDS011;57735;56.264;43.898;2023-08-06T03:24:31;37.47;;;21.67;;
70322;SDS011;57735;56.264;43.898;2023-08-06T03:27:01;44.30;;;19.98;;
70322;SDS011;57735;56.264;43.898;2023-08-06T03:29:33;44.97;;;21.75;;
70322;SDS011;57735;56.264;43.898;2023-08-06T03:32:03;46.13;;;21.40;;
70322;SDS011;57735;56.264;43.898;2023-08-06T03:34:34;44.80;;;22.48;;
70322;SDS011;57735;56.264;43.898;2023-08-06T03:37:05;45.10;;;23.50;;
70322;SDS011;57735;56.264;43.898;2023-08-06T03:39:36;43.67;;;23.90;;
70322;SDS011;57735;56.264;43.898;2023-08-06T03:42:06;48.92;;;23.90;;
70322;SDS011;57735;56.264;43.898;2023-08-06T03:44:37;42.20;;;24.10;;
70322;SDS011;57735;56.264;43.898;2023-08-06T03:47:09;48.90;;;23.95;;
70322;SDS011;57735;56.264;43.898;2023-08-06T03:49:40;52.05;;;23.15;;
70322;SDS011;57735;56.264;43.898;2023-08-06T03:52:13;42.70;;;22.50;;
70322;SDS011;57735;56.264;43.898;2023-08-06T03:54:44;40.63;;;22.80;;
70322;SDS011;57735;56.264;43.898;2023-08-06T03:57:15;47.25;;;23.88;;
70322;SDS011;57735;56.264;43.898;2023-08-06T03:59:49;51.35;;;23.92;;
70322;SDS011;57735;56.264;43.898;2023-08-06T04:02:19;38.05;;;22.20;;
70322;SDS011;57735;56.264;43.898;2023-08-06T04:04:50;46.50;;;23.35;;
70322;SDS011;57735;56.264;43.898;2023-08-06T04:07:24;45.10;;;23.48;;
70322;SDS011;57735;56.264;43.898;2023-08-06T04:09:56;45.45;;;22.13;;
70322;SDS011;57735;56.264;43.898;2023-08-06T04:12:37;35.75;;;20.42;;
70322;SDS011;57735;56.264;43.898;2023-08-06T04:15:09;37.95;;;20.77;;
70322;SDS011;57735;56.264;43.898;2023-08-06T04:17:40;42.80;;;22.00;;
70322;SDS011;57735;56.264;43.898;2023-08-06T04:20:11;39.75;;;21.77;;
70322;SDS011;57735;56.264;43.898;2023-08-06T04:22:41;35.80;;;22.20;;
70322;SDS011;57735;56.264;43.898;2023-08-06T04:25:12;42.10;;;22.30;;
70322;SDS011;57735;56.264;43.898;2023-08-06T04:27:43;33.38;;;20.75;;
70322;SDS011;57735;56.264;43.898;2023-08-06T04:30:14;41.72;;;19.27;;
70322;SDS011;57735;56.264;43.898;2023-08-06T04:32:49;41.03;;;19.88;;
70322;SDS011;57735;56.264;43.898;2023-08-06T04:35:20;38.13;;;19.33;;
70322;SDS011;57735;56.264;43.898;2023-08-06T04:37:51;30.17;;;19.65;;
70322;SDS011;57735;56.264;43.898;2023-08-06T04:40:22;23.58;;;14.93;;
70322;SDS011;57735;56.264;43.898;2023-08-06T04:42:53;22.95;;;12.98;;
70322;SDS011;57735;56.264;43.898;2023-08-06T04:45:24;19.23;;;10.20;;
70322;SDS011;57735;56.264;43.898;2023-08-06T04:47:54;20.25;;;10.20;;
70322;SDS011;57735;56.264;43.898;2023-08-06T04:50:25;14.93;;;9.18;;
70322;SDS011;57735;56.264;43.898;2023-08-06T04:52:56;12.57;;;7.85;;
70322;SDS011;57735;56.264;43.898;2023-08-06T04:55:27;13.60;;;7.43;;
70322;SDS011;57735;56.264;43.898;2023-08-06T04:57:57;13.63;;;8.18;;
70322;SDS011;57735;56.264;43.898;2023-08-06T05:00:28;16.70;;;7.07;;
70322;SDS011;57735;56.264;43.898;2023-08-06T05:03:01;7.90;;;5.45;;
70322;SDS011;57735;56.264;43.898;2023-08-06T05:05:32;9.65;;;6.10;;
70322;SDS011;57735;56.264;43.898;2023-08-06T05:08:05;13.88;;;6.47;;
70322;SDS011;57735;56.264;43.898;2023-08-06T05:10:36;13.88;;;6.88;;
70322;SDS011;57735;56.264;43.898;2023-08-06T05:13:07;13.32;;;6.60;;
70322;SDS011;57735;56.264;43.898;2023-08-06T05:15:38;13.68;;;6.80;;
70322;SDS011;57735;56.264;43.898;2023-08-06T05:18:10;13.10;;;6.32;;
70322;SDS011;57735;56.264;43.898;2023-08-06T05:20:42;18.27;;;5.95;;
70322;SDS011;57735;56.264;43.898;2023-08-06T05:23:13;13.45;;;5.35;;
70322;SDS011;57735;56.264;43.898;2023-08-06T05:25:44;15.00;;;6.07;;
70322;SDS011;57735;56.264;43.898;2023-08-06T05:28:15;11.20;;;4.97;;
70322;SDS011;57735;56.264;43.898;2023-08-06T05:30:45;8.13;;;5.13;;
70322;SDS011;57735;56.264;43.898;2023-08-06T05:33:16;8.23;;;4.70;;
70322;SDS011;57735;56.264;43.898;2023-08-06T05:35:48;15.38;;;3.83;;
70322;SDS011;57735;56.264;43.898;2023-08-06T05:38:23;9.90;;;4.15;;
70322;SDS011;57735;56.264;43.898;2023-08-06T05:40:54;8.45;;;3.65;;
70322;SDS011;57735;56.264;43.898;2023-08-06T05:43:25;9.85;;;3.53;;
70322;SDS011;57735;56.264;43.898;2023-08-06T05:45:56;11.05;;;3.97;;
70322;SDS011;57735;56.264;43.898;2023-08-06T05:48:29;11.95;;;4.13;;
70322;SDS011;57735;56.264;43.898;2023-08-06T05:51:00;11.80;;;4.25;;
70322;SDS011;57735;56.264;43.898;2023-08-06T05:53:31;11.70;;;3.45;;
70322;SDS011;57735;56.264;43.898;2023-08-06T05:56:02;7.35;;;3.90;;
70322;SDS011;57735;56.264;43.898;2023-08-06T05:58:35;9.73;;;3.70;;
70322;SDS011;57735;56.264;43.898;2023-08-06T06:01:08;8.05;;;3.60;;
70322;SDS011;57735;56.264;43.898;2023-08-06T06:03:39;7.35;;;3.20;;
70322;SDS011;57735;56.264;43.898;2023-08-06T06:06:10;7.93;;;4.00;;
70322;SDS011;57735;56.264;43.898;2023-08-06T06:08:41;7.90;;;3.30;;
70322;SDS011;57735;56.264;43.898;2023-08-06T06:11:11;6.80;;;3.42;;
70322;SDS011;57735;56.264;43.898;2023-08-06T06:13:42;9.20;;;3.97;;
70322;SDS011;57735;56.264;43.898;2023-08-06T06:16:13;11.27;;;3.05;;
70322;SDS011;57735;56.264;43.898;2023-08-06T06:18:49;6.90;;;3.22;;
70322;SDS011;57735;56.264;43.898;2023-08-06T06:21:20;8.02;;;3.20;;
70322;SDS011;57735;56.264;43.898;2023-08-06T06:23:50;10.32;;;2.83;;
70322;SDS011;57735;56.264;43.898;2023-08-06T06:26:24;7.53;;;2.85;;
70322;SDS011;57735;56.264;43.898;2023-08-06T06:28:54;14.20;;;2.83;;
70322;SDS011;57735;56.264;43.898;2023-08-06T06:31:25;7.05;;;2.75;;
70322;SDS011;57735;56.264;43.898;2023-08-06T06:33:56;6.97;;;2.63;;
70322;SDS011;57735;56.264;43.898;2023-08-06T06:36:29;13.25;;;3.08;;
70322;SDS011;57735;56.264;43.898;2023-08-06T06:39:00;7.53;;;3.40;;
70322;SDS011;57735;56.264;43.898;2023-08-06T06:41:31;13.23;;;3.20;;
70322;SDS011;57735;56.264;43.898;2023-08-06T06:44:04;4.40;;;2.67;;
70322;SDS011;57735;56.264;43.898;2023-08-06T06:46:35;9.18;;;2.72;;
70322;SDS011;57735;56.264;43.898;2023-08-06T06:49:06;5.72;;;2.80;;
70322;SDS011;57735;56.264;43.898;2023-08-06T06:51:39;7.05;;;3.33;;
70322;SDS011;57735;56.264;43.898;2023-08-06T06:54:10;5.38;;;2.97;;
70322;SDS011;57735;56.264;43.898;2023-08-06T06:56:41;7.50;;;2.97;;
70322;SDS011;57735;56.264;43.898;2023-08-06T06:59:12;6.82;;;2.78;;
70322;SDS011;57735;56.264;43.898;2023-08-06T07:01:47;7.97;;;3.17;;
70322;SDS011;57735;56.264;43.898;2023-08-06T07:04:18;5.45;;;3.30;;
70322;SDS011;57735;56.264;43.898;2023-08-06T07:06:49;8.95;;;3.75;;
70322;SDS011;57735;56.264;43.898;2023-08-06T07:09:22;4.40;;;3.10;;
70322;SDS011;57735;56.264;43.898;2023-08-06T07:11:53;4.90;;;3.47;;
70322;SDS011;57735;56.264;43.898;2023-08-06T07:14:27;7.90;;;3.30;;
70322;SDS011;57735;56.264;43.898;2023-08-06T07:16:58;5.05;;;3.03;;
70322;SDS011;57735;56.264;43.898;2023-08-06T07:19:32;11.77;;;4.20;;
70322;SDS011;57735;56.264;43.898;2023-08-06T07:22:03;9.38;;;5.53;;
70322;SDS011;57735;56.264;43.898;2023-08-06T07:24:34;10.77;;;5.03;;
70322;SDS011;57735;56.264;43.898;2023-08-06T07:27:05;8.05;;;4.10;;
70322;SDS011;57735;56.264;43.898;2023-08-06T07:29:36;8.75;;;4.80;;
70322;SDS011;57735;56.264;43.898;2023-08-06T07:32:07;11.63;;;4.55;;
70322;SDS011;57735;56.264;43.898;2023-08-06T07:34:38;6.57;;;3.67;;
70322;SDS011;57735;56.264;43.898;2023-08-06T07:37:09;11.95;;;4.28;;
70322;SDS011;57735;56.264;43.898;2023-08-06T07:39:40;10.07;;;4.53;;
70322;SDS011;57735;56.264;43.898;2023-08-06T07:42:15;9.82;;;4.60;;
70322;SDS011;57735;56.264;43.898;2023-08-06T07:44:55;9.00;;;4.38;;
70322;SDS011;57735;56.264;43.898;2023-08-06T07:47:29;12.85;;;5.15;;
70322;SDS011;57735;56.264;43.898;2023-08-06T07:49:59;11.73;;;5.53;;
70322;SDS011;57735;56.264;43.898;2023-08-06T07:52:30;7.82;;;5.28;;
70322;SDS011;57735;56.264;43.898;2023-08-06T07:55:03;11.65;;;5.38;;
70322;SDS011;57735;56.264;43.898;2023-08-06T07:57:36;11.63;;;4.82;;
70322;SDS011;57735;56.264;43.898;2023-08-06T08:00:08;7.65;;;5.20;;
70322;SDS011;57735;56.264;43.898;2023-08-06T08:02:40;9.00;;;5.30;;
70322;SDS011;57735;56.264;43.898;2023-08-06T08:05:10;7.43;;;4.68;;
70322;SDS011;57735;56.264;43.898;2023-08-06T08:07:41;7.10;;;4.70;;
70322;SDS011;57735;56.264;43.898;2023-08-06T08:10:12;12.00;;;4.55;;
70322;SDS011;57735;56.264;43.898;2023-08-06T08:12:43;10.35;;;5.45;;
70322;SDS011;57735;56.264;43.898;2023-08-06T08:15:14;12.45;;;5.63;;
70322;SDS011;57735;56.264;43.898;2023-08-06T08:17:44;13.45;;;5.65;;
70322;SDS011;57735;56.264;43.898;2023-08-06T08:20:17;7.68;;;5.63;;
70322;SDS011;57735;56.264;43.898;2023-08-06T08:22:48;12.43;;;5.40;;
70322;SDS011;57735;56.264;43.898;2023-08-06T08:25:20;8.45;;;4.78;;
70322;SDS011;57735;56.264;43.898;2023-08-06T08:27:50;7.90;;;4.55;;
70322;SDS011;57735;56.264;43.898;2023-08-06T08:30:22;9.02;;;4.72;;
70322;SDS011;57735;56.264;43.898;2023-08-06T08:32:55;11.13;;;4.93;;
70322;SDS011;57735;56.264;43.898;2023-08-06T08:35:25;10.82;;;4.32;;
70322;SDS011;57735;56.264;43.898;2023-08-06T08:37:56;6.30;;;4.45;;
70322;SDS011;57735;56.264;43.898;2023-08-06T08:40:29;10.60;;;4.70;;
70322;SDS011;57735;56.264;43.898;2023-08-06T08:43:02;10.82;;;4.53;;
70322;SDS011;57735;56.264;43.898;2023-08-06T08:45:35;5.90;;;3.70;;
70322;SDS011;57735;56.264;43.898;2023-08-06T08:48:11;5.40;;;2.95;;
70322;SDS011;57735;56.264;43.898;2023-08-06T08:50:47;7.40;;;2.92;;
70322;SDS011;57735;56.264;43.898;2023-08-06T08:53:19;4.25;;;2.47;;
70322;SDS011;57735;56.264;43.898;2023-08-06T08:55:52;8.10;;;2.95;;
70322;SDS011;57735;56.264;43.898;2023-08-06T08:58:23;7.47;;;3.53;;
70322;SDS011;57735;56.264;43.898;2023-08-06T09:00:54;5.22;;;2.83;;
70322;SDS011;57735;56.264;43.898;2023-08-06T09:03:25;7.80;;;3.15;;
70322;SDS011;57735;56.264;43.898;2023-08-06T09:05:56;10.32;;;4.13;;
70322;SDS011;57735;56.264;43.898;2023-08-06T09:08:31;5.80;;;2.88;;
70322;SDS011;57735;56.264;43.898;2023-08-06T09:11:08;4.05;;;2.92;;
70322;SDS011;57735;56.264;43.898;2023-08-06T09:13:42;9.75;;;2.60;;
70322;SDS011;57735;56.264;43.898;2023-08-06T09:16:13;6.03;;;2.30;;
70322;SDS011;57735;56.264;43.898;2023-08-06T09:18:44;4.57;;;2.38;;
70322;SDS011;57735;56.264;43.898;2023-08-06T09:21:15;2.38;;;1.88;;
70322;SDS011;57735;56.264;43.898;2023-08-06T09:23:48;6.20;;;1.80;;
70322;SDS011;57735;56.264;43.898;2023-08-06T09:26:21;2.80;;;1.90;;
70322;SDS011;57735;56.264;43.898;2023-08-06T09:28:52;4.78;;;2.00;;
70322;SDS011;57735;56.264;43.898;2023-08-06T09:31:23;3.45;;;2.00;;
70322;SDS011;57735;56.264;43.898;2023-08-06T09:33:53;4.68;;;2.22;;
70322;SDS011;57735;56.264;43.898;2023-08-06T09:36:24;4.80;;;2.10;;
70322;SDS011;57735;56.264;43.898;2023-08-06T09:38:55;6.22;;;2.38;;
70322;SDS011;57735;56.264;43.898;2023-08-06T09:41:29;4.72;;;2.20;;
70322;SDS011;57735;56.264;43.898;2023-08-06T09:44:00;4.85;;;2.00;;
70322;SDS011;57735;56.264;43.898;2023-08-06T09:46:32;2.90;;;1.85;;
70322;SDS011;57735;56.264;43.898;2023-08-06T09:49:03;2.88;;;1.70;;
70322;SDS011;57735;56.264;43.898;2023-08-06T09:51:36;1.85;;;1.70;;
70322;SDS011;57735;56.264;43.898;2023-08-06T09:54:11;4.97;;;2.10;;
70322;SDS011;57735;56.264;43.898;2023-08-06T09:56:43;3.77;;;1.90;;
70322;SDS011;57735;56.264;43.898;2023-08-06T09:59:14;5.00;;;2.00;;
70322;SDS011;57735;56.264;43.898;2023-08-06T10:01:46;5.80;;;1.88;;
70322;SDS011;57735;56.264;43.898;2023-08-06T10:04:17;3.10;;;1.80;;
70322;SDS011;57735;56.264;43.898;2023-08-06T10:06:48;2.67;;;1.98;;
70322;SDS011;57735;56.264;43.898;2023-08-06T10:09:19;4.00;;;2.00;;
70322;SDS011;57735;56.264;43.898;2023-08-06T10:11:50;4.95;;;1.63;;
70322;SDS011;57735;56.264;43.898;2023-08-06T10:17:03;7.13;;;2.15;;
70322;SDS011;57735;56.264;43.898;2023-08-06T10:19:34;3.63;;;2.05;;
70322;SDS011;57735;56.264;43.898;2023-08-06T10:22:09;6.30;;;1.92;;
70322;SDS011;57735;56.264;43.898;2023-08-06T10:24:52;4.57;;;2.42;;
70322;SDS011;57735;56.264;43.898;2023-08-06T10:27:40;4.05;;;1.73;;
70322;SDS011;57735;56.264;43.898;2023-08-06T10:30:29;4.35;;;1.67;;
70322;SDS011;57735;56.264;43.898;2023-08-06T10:33:06;2.25;;;1.58;;
70322;SDS011;57735;56.264;43.898;2023-08-06T10:35:43;3.85;;;1.60;;
70322;SDS011;57735;56.264;43.898;2023-08-06T10:38:16;3.78;;;1.80;;
70322;SDS011;57735;56.264;43.898;2023-08-06T10:41:00;3.40;;;1.65;;
70322;SDS011;57735;56.264;43.898;2023-08-06T10:43:33;3.63;;;2.00;;
70322;SDS011;57735;56.264;43.898;2023-08-06T10:46:13;3.65;;;1.80;;
70322;SDS011;57735;56.264;43.898;2023-08-06T10:48:52;4.63;;;1.50;;
70322;SDS011;57735;56.264;43.898;2023-08-06T10:51:23;2.70;;;1.80;;
70322;SDS011;57735;56.264;43.898;2023-08-06T10:53:54;3.60;;;1.80;;
70322;SDS011;57735;56.264;43.898;2023-08-06T10:56:28;4.32;;;1.70;;
70322;SDS011;57735;56.264;43.898;2023-08-06T10:58:59;2.20;;;1.70;;
70322;SDS011;57735;56.264;43.898;2023-08-06T11:01:30;5.60;;;1.70;;
70322;SDS011;57735;56.264;43.898;2023-08-06T11:04:05;3.65;;;1.83;;
70322;SDS011;57735;56.264;43.898;2023-08-06T11:06:36;3.55;;;1.90;;
70322;SDS011;57735;56.264;43.898;2023-08-06T11:09:07;5.13;;;2.13;;
70322;SDS011;57735;56.264;43.898;2023-08-06T11:11:38;3.90;;;1.85;;
70322;SDS011;57735;56.264;43.898;2023-08-06T11:14:14;5.97;;;1.58;;
70322;SDS011;57735;56.264;43.898;2023-08-06T11:16:45;8.85;;;2.08;;
70322;SDS011;57735;56.264;43.898;2023-08-06T11:19:16;3.15;;;1.60;;
70322;SDS011;57735;56.264;43.898;2023-08-06T11:21:47;3.15;;;1.50;;
70322;SDS011;57735;56.264;43.898;2023-08-06T11:24:21;5.78;;;1.52;;
70322;SDS011;57735;56.264;43.898;2023-08-06T11:26:53;7.22;;;1.70;;
70322;SDS011;57735;56.264;43.898;2023-08-06T11:29:29;5.68;;;1.40;;
70322;SDS011;57735;56.264;43.898;2023-08-06T11:32:03;3.50;;;1.90;;
70322;SDS011;57735;56.264;43.898;2023-08-06T11:34:38;4.05;;;1.55;;
70322;SDS011;57735;56.264;43.898;2023-08-06T11:37:09;2.78;;;1.60;;
70322;SDS011;57735;56.264;43.898;2023-08-06T11:39:44;3.28;;;1.50;;
70322;SDS011;57735;56.264;43.898;2023-08-06T11:42:18;3.47;;;1.50;;
70322;SDS011;57735;56.264;43.898;2023-08-06T11:44:56;3.45;;;1.70;;
70322;SDS011;57735;56.264;43.898;2023-08-06T11:47:27;2.88;;;1.65;;
70322;SDS011;57735;56.264;43.898;2023-08-06T11:49:57;6.75;;;1.83;;
70322;SDS011;57735;56.264;43.898;2023-08-06T11:52:28;5.10;;;2.70;;
70322;SDS011;57735;56.264;43.898;2023-08-06T11:55:00;3.88;;;1.48;;
70322;SDS011;57735;56.264;43.898;2023-08-06T11:57:34;4.47;;;1.40;;
70322;SDS011;57735;56.264;43.898;2023-08-06T12:00:06;3.47;;;1.40;;
70322;SDS011;57735;56.264;43.898;2023-08-06T12:02:39;16.25;;;2.25;;
70322;SDS011;57735;56.264;43.898;2023-08-06T12:05:13;3.50;;;1.50;;
70322;SDS011;57735;56.264;43.898;2023-08-06T12:07:45;1.98;;;1.55;;
70322;SDS011;57735;56.264;43.898;2023-08-06T12:10:26;2.25;;;1.55;;
70322;SDS011;57735;56.264;43.898;2023-08-06T12:13:01;1.65;;;1.40;;
70322;SDS011;57735;56.264;43.898;2023-08-06T12:15:33;3.25;;;1.75;;
70322;SDS011;57735;56.264;43.898;2023-08-06T12:18:08;1.88;;;1.60;;
70322;SDS011;57735;56.264;43.898;2023-08-06T12:20:39;3.05;;;1.50;;
70322;SDS011;57735;56.264;43.898;2023-08-06T12:23:10;4.75;;;1.75;;
70322;SDS011;57735;56.264;43.898;2023-08-06T12:25:45;3.38;;;2.20;;
70322;SDS011;57735;56.264;43.898;2023-08-06T12:28:16;4.22;;;1.80;;
70322;SDS011;57735;56.264;43.898;2023-08-06T12:30:47;4.07;;;1.50;;
70322;SDS011;57735;56.264;43.898;2023-08-06T12:33:21;3.10;;;1.70;;
70322;SDS011;57735;56.264;43.898;2023-08-06T12:35:52;1.58;;;1.45;;
70322;SDS011;57735;56.264;43.898;2023-08-06T12:38:25;2.22;;;1.77;;
70322;SDS011;57735;56.264;43.898;2023-08-06T12:40:56;2.03;;;1.27;;
70322;SDS011;57735;56.264;43.898;2023-08-06T12:43:27;8.25;;;1.52;;
70322;SDS011;57735;56.264;43.898;2023-08-06T12:45:58;4.28;;;1.45;;
70322;SDS011;57735;56.264;43.898;2023-08-06T12:48:29;5.93;;;1.70;;
70322;SDS011;57735;56.264;43.898;2023-08-06T12:50:59;2.17;;;1.55;;
70322;SDS011;57735;56.264;43.898;2023-08-06T12:53:30;2.13;;;1.70;;
70322;SDS011;57735;56.264;43.898;2023-08-06T12:56:01;2.85;;;1.60;;
70322;SDS011;57735;56.264;43.898;2023-08-06T12:58:32;4.60;;;1.67;;
70322;SDS011;57735;56.264;43.898;2023-08-06T13:01:02;6.18;;;2.15;;
70322;SDS011;57735;56.264;43.898;2023-08-06T13:03:33;3.40;;;1.48;;
70322;SDS011;57735;56.264;43.898;2023-08-06T13:06:04;2.80;;;1.50;;
70322;SDS011;57735;56.264;43.898;2023-08-06T13:08:36;7.00;;;1.73;;
70322;SDS011;57735;56.264;43.898;2023-08-06T13:11:09;2.17;;;1.70;;
70322;SDS011;57735;56.264;43.898;2023-08-06T13:13:40;3.33;;;1.50;;
70322;SDS011;57735;56.264;43.898;2023-08-06T13:16:11;6.18;;;2.97;;
70322;SDS011;57735;56.264;43.898;2023-08-06T13:18:42;7.88;;;2.00;;
70322;SDS011;57735;56.264;43.898;2023-08-06T13:21:12;4.13;;;1.90;;
70322;SDS011;57735;56.264;43.898;2023-08-06T13:23:43;5.88;;;2.17;;
70322;SDS011;57735;56.264;43.898;2023-08-06T13:26:14;3.63;;;1.50;;
70322;SDS011;57735;56.264;43.898;2023-08-06T13:28:46;2.88;;;1.58;;
70322;SDS011;57735;56.264;43.898;2023-08-06T13:31:16;4.07;;;1.60;;
70322;SDS011;57735;56.264;43.898;2023-08-06T13:33:47;5.82;;;1.80;;
70322;SDS011;57735;56.264;43.898;2023-08-06T13:36:20;3.50;;;1.60;;
70322;SDS011;57735;56.264;43.898;2023-08-06T13:38:50;3.72;;;1.73;;
70322;SDS011;57735;56.264;43.898;2023-08-06T13:41:23;6.18;;;1.85;;
70322;SDS011;57735;56.264;43.898;2023-08-06T13:43:54;4.57;;;1.58;;
70322;SDS011;57735;56.264;43.898;2023-08-06T13:46:25;3.17;;;1.80;;
70322;SDS011;57735;56.264;43.898;2023-08-06T13:48:56;3.65;;;1.70;;
70322;SDS011;57735;56.264;43.898;2023-08-06T13:51:27;4.57;;;1.90;;
70322;SDS011;57735;56.264;43.898;2023-08-06T13:53:58;5.40;;;1.52;;
70322;SDS011;57735;56.264;43.898;2023-08-06T13:56:35;2.50;;;1.58;;
70322;SDS011;57735;56.264;43.898;2023-08-06T13:59:08;3.40;;;1.90;;
70322;SDS011;57735;56.264;43.898;2023-08-06T14:01:39;4.80;;;1.73;;
70322;SDS011;57735;56.264;43.898;2023-08-06T14:04:10;4.13;;;1.70;;
70322;SDS011;57735;56.264;43.898;2023-08-06T14:06:40;7.70;;;2.35;;
70322;SDS011;57735;56.264;43.898;2023-08-06T14:09:13;3.88;;;1.70;;
70322;SDS011;57735;56.264;43.898;2023-08-06T14:11:51;4.10;;;1.77;;
70322;SDS011;57735;56.264;43.898;2023-08-06T14:14:21;3.85;;;1.92;;
70322;SDS011;57735;56.264;43.898;2023-08-06T14:16:56;8.98;;;1.90;;
70322;SDS011;57735;56.264;43.898;2023-08-06T14:19:27;7.78;;;1.75;;
70322;SDS011;57735;56.264;43.898;2023-08-06T14:21:59;3.50;;;1.50;;
70322;SDS011;57735;56.264;43.898;2023-08-06T14:24:30;4.28;;;1.75;;
70322;SDS011;57735;56.264;43.898;2023-08-06T14:27:00;2.67;;;1.70;;
70322;SDS011;57735;56.264;43.898;2023-08-06T14:29:31;4.32;;;1.88;;
70322;SDS011;57735;56.264;43.898;2023-08-06T14:32:05;3.13;;;1.70;;
70322;SDS011;57735;56.264;43.898;2023-08-06T14:34:36;7.03;;;2.10;;
70322;SDS011;57735;56.264;43.898;2023-08-06T14:37:07;3.10;;;1.85;;
70322;SDS011;57735;56.264;43.898;2023-08-06T14:39:40;4.82;;;1.67;;
70322;SDS011;57735;56.264;43.898;2023-08-06T14:44:42;2.88;;;1.85;;
70322;SDS011;57735;56.264;43.898;2023-08-06T14:47:12;8.52;;;1.70;;
70322;SDS011;57735;56.264;43.898;2023-08-06T14:49:43;3.55;;;2.60;;
70322;SDS011;57735;56.264;43.898;2023-08-06T14:52:15;4.20;;;2.15;;
70322;SDS011;57735;56.264;43.898;2023-08-06T14:54:45;3.90;;;1.73;;
70322;SDS011;57735;56.264;43.898;2023-08-06T14:57:16;6.20;;;1.80;;
70322;SDS011;57735;56.264;43.898;2023-08-06T14:59:50;6.75;;;2.00;;